sensor_id;sensor_type;location;lat;lon;timestamp;P1;durP1;ratioP1;P2;durP2;ratioP2
46363;SDS011;32071;49.036;9.344;2023-02-17T00:00:21;7.87;;;5.80;;
46363;SDS011;32071;49.036;9.344;2023-02-17T00:02:46;8.17;;;5.60;;
46363;SDS011;32071;49.036;9.344;2023-02-17T00:05:12;7.90;;;5.80;;
46363;SDS011;32071;49.036;9.344;2023-02-17T00:07:38;8.80;;;6.00;;
46363;SDS011;32071;49.036;9.344;2023-02-17T00:10:04;10.83;;;6.10;;
46363;SDS011;32071;49.036;9.344;2023-02-17T00:12:33;11.33;;;6.27;;
46363;SDS011;32071;49.036;9.344;2023-02-17T00:14:58;11.23;;;6.63;;
46363;SDS011;32071;49.036;9.344;2023-02-17T00:17:24;8.93;;;6.10;;
46363;SDS011;32071;49.036;9.344;2023-02-17T00:19:52;8.40;;;6.20;;
46363;SDS011;32071;49.036;9.344;2023-02-17T00:22:18;8.67;;;5.93;;
46363;SDS011;32071;49.036;9.344;2023-02-17T00:24:44;8.50;;;5.73;;
46363;SDS011;32071;49.036;9.344;2023-02-17T00:27:09;7.87;;;5.83;;
46363;SDS011;32071;49.036;9.344;2023-02-17T00:29:35;11.33;;;7.10;;
46363;SDS011;32071;49.036;9.344;2023-02-17T00:32:00;11.77;;;6.83;;
46363;SDS011;32071;49.036;9.344;2023-02-17T00:34:26;7.90;;;6.27;;
46363;SDS011;32071;49.036;9.344;2023-02-17T00:36:52;9.37;;;6.53;;
46363;SDS011;32071;49.036;9.344;2023-02-17T00:39:17;10.93;;;5.53;;
46363;SDS011;32071;49.036;9.344;2023-02-17T00:41:43;11.57;;;6.67;;
46363;SDS011;32071;49.036;9.344;2023-02-17T00:44:14;9.70;;;6.17;;
46363;SDS011;32071;49.036;9.344;2023-02-17T00:46:42;8.40;;;5.67;;
46363;SDS011;32071;49.036;9.344;2023-02-17T00:49:13;10.13;;;5.30;;
46363;SDS011;32071;49.036;9.344;2023-02-17T00:51:40;7.60;;;5.57;;
46363;SDS011;32071;49.036;9.344;2023-02-17T00:54:06;16.33;;;5.60;;
46363;SDS011;32071;49.036;9.344;2023-02-17T00:56:31;10.97;;;5.90;;
46363;SDS011;32071;49.036;9.344;2023-02-17T00:58:57;8.73;;;5.50;;
46363;SDS011;32071;49.036;9.344;2023-02-17T01:01:23;10.00;;;5.87;;
46363;SDS011;32071;49.036;9.344;2023-02-17T01:03:48;11.83;;;6.17;;
46363;SDS011;32071;49.036;9.344;2023-02-17T01:06:17;7.57;;;4.80;;
46363;SDS011;32071;49.036;9.344;2023-02-17T01:08:52;10.50;;;5.47;;
46363;SDS011;32071;49.036;9.344;2023-02-17T01:11:19;8.13;;;5.80;;
46363;SDS011;32071;49.036;9.344;2023-02-17T01:13:46;9.93;;;5.60;;
46363;SDS011;32071;49.036;9.344;2023-02-17T01:16:16;8.90;;;5.60;;
46363;SDS011;32071;49.036;9.344;2023-02-17T01:18:44;10.90;;;4.87;;
46363;SDS011;32071;49.036;9.344;2023-02-17T01:21:42;8.53;;;5.37;;
46363;SDS011;32071;49.036;9.344;2023-02-17T01:24:02;9.50;;;5.77;;
46363;SDS011;32071;49.036;9.344;2023-02-17T01:26:30;7.70;;;5.50;;
46363;SDS011;32071;49.036;9.344;2023-02-17T01:28:57;9.30;;;5.50;;
46363;SDS011;32071;49.036;9.344;2023-02-17T01:31:24;7.13;;;5.17;;
46363;SDS011;32071;49.036;9.344;2023-02-17T01:33:53;9.10;;;5.23;;
46363;SDS011;32071;49.036;9.344;2023-02-17T01:36:20;8.20;;;4.80;;
46363;SDS011;32071;49.036;9.344;2023-02-17T01:38:46;8.23;;;5.33;;
46363;SDS011;32071;49.036;9.344;2023-02-17T01:41:13;8.93;;;5.57;;
46363;SDS011;32071;49.036;9.344;2023-02-17T01:43:40;8.07;;;5.33;;
46363;SDS011;32071;49.036;9.344;2023-02-17T01:46:06;11.57;;;6.83;;
46363;SDS011;32071;49.036;9.344;2023-02-17T01:48:35;9.63;;;6.10;;
46363;SDS011;32071;49.036;9.344;2023-02-17T01:51:05;9.53;;;6.60;;
46363;SDS011;32071;49.036;9.344;2023-02-17T01:53:39;8.37;;;6.33;;
46363;SDS011;32071;49.036;9.344;2023-02-17T01:56:09;7.13;;;5.10;;
46363;SDS011;32071;49.036;9.344;2023-02-17T01:58:38;8.17;;;5.83;;
46363;SDS011;32071;49.036;9.344;2023-02-17T02:01:06;7.17;;;5.90;;
46363;SDS011;32071;49.036;9.344;2023-02-17T02:03:33;8.40;;;6.13;;
46363;SDS011;32071;49.036;9.344;2023-02-17T02:06:02;10.60;;;6.60;;
46363;SDS011;32071;49.036;9.344;2023-02-17T02:08:53;9.60;;;6.60;;
46363;SDS011;32071;49.036;9.344;2023-02-17T02:11:19;10.13;;;6.13;;
46363;SDS011;32071;49.036;9.344;2023-02-17T02:13:45;12.60;;;6.40;;
46363;SDS011;32071;49.036;9.344;2023-02-17T02:16:34;7.50;;;5.43;;
46363;SDS011;32071;49.036;9.344;2023-02-17T02:28:20;6.57;;;4.80;;
46363;SDS011;32071;49.036;9.344;2023-02-17T02:33:49;8.77;;;5.10;;
46363;SDS011;32071;49.036;9.344;2023-02-17T02:36:26;8.70;;;6.00;;
46363;SDS011;32071;49.036;9.344;2023-02-17T02:41:28;6.83;;;4.70;;
46363;SDS011;32071;49.036;9.344;2023-02-17T02:43:58;7.03;;;5.57;;
46363;SDS011;32071;49.036;9.344;2023-02-17T02:46:24;10.37;;;5.00;;
46363;SDS011;32071;49.036;9.344;2023-02-17T02:48:49;11.07;;;5.57;;
46363;SDS011;32071;49.036;9.344;2023-02-17T02:53:57;6.77;;;4.63;;
46363;SDS011;32071;49.036;9.344;2023-02-17T03:01:53;10.40;;;6.17;;
46363;SDS011;32071;49.036;9.344;2023-02-17T03:04:31;9.70;;;6.13;;
46363;SDS011;32071;49.036;9.344;2023-02-17T03:07:04;14.30;;;6.90;;
46363;SDS011;32071;49.036;9.344;2023-02-17T03:09:31;11.70;;;7.00;;
46363;SDS011;32071;49.036;9.344;2023-02-17T03:11:58;8.57;;;5.40;;
46363;SDS011;32071;49.036;9.344;2023-02-17T03:14:24;8.53;;;5.43;;
46363;SDS011;32071;49.036;9.344;2023-02-17T03:16:51;8.43;;;5.00;;
46363;SDS011;32071;49.036;9.344;2023-02-17T03:19:19;10.37;;;6.13;;
46363;SDS011;32071;49.036;9.344;2023-02-17T03:21:49;6.60;;;5.13;;
46363;SDS011;32071;49.036;9.344;2023-02-17T03:24:17;7.80;;;5.30;;
46363;SDS011;32071;49.036;9.344;2023-02-17T03:26:43;7.40;;;4.93;;
46363;SDS011;32071;49.036;9.344;2023-02-17T03:29:09;6.80;;;4.80;;
46363;SDS011;32071;49.036;9.344;2023-02-17T03:31:35;8.33;;;4.93;;
46363;SDS011;32071;49.036;9.344;2023-02-17T03:34:01;7.17;;;5.27;;
46363;SDS011;32071;49.036;9.344;2023-02-17T03:36:27;7.37;;;5.00;;
46363;SDS011;32071;49.036;9.344;2023-02-17T03:38:53;6.67;;;5.20;;
46363;SDS011;32071;49.036;9.344;2023-02-17T03:41:19;9.30;;;5.40;;
46363;SDS011;32071;49.036;9.344;2023-02-17T03:43:45;8.63;;;5.73;;
46363;SDS011;32071;49.036;9.344;2023-02-17T03:46:11;9.80;;;6.33;;
46363;SDS011;32071;49.036;9.344;2023-02-17T03:48:39;7.27;;;5.17;;
46363;SDS011;32071;49.036;9.344;2023-02-17T03:51:15;6.63;;;4.47;;
46363;SDS011;32071;49.036;9.344;2023-02-17T03:53:43;7.80;;;4.80;;
46363;SDS011;32071;49.036;9.344;2023-02-17T03:56:09;12.60;;;5.30;;
46363;SDS011;32071;49.036;9.344;2023-02-17T03:58:36;6.53;;;4.90;;
46363;SDS011;32071;49.036;9.344;2023-02-17T04:01:02;8.47;;;4.87;;
46363;SDS011;32071;49.036;9.344;2023-02-17T04:03:29;6.40;;;4.80;;
46363;SDS011;32071;49.036;9.344;2023-02-17T04:05:54;7.27;;;5.27;;
46363;SDS011;32071;49.036;9.344;2023-02-17T04:08:21;7.20;;;4.83;;
46363;SDS011;32071;49.036;9.344;2023-02-17T04:10:53;8.53;;;5.00;;
46363;SDS011;32071;49.036;9.344;2023-02-17T04:13:21;8.07;;;5.17;;
46363;SDS011;32071;49.036;9.344;2023-02-17T04:15:47;10.77;;;5.20;;
46363;SDS011;32071;49.036;9.344;2023-02-17T04:18:13;5.77;;;4.47;;
46363;SDS011;32071;49.036;9.344;2023-02-17T04:20:39;6.87;;;5.10;;
46363;SDS011;32071;49.036;9.344;2023-02-17T04:23:05;6.47;;;4.40;;
46363;SDS011;32071;49.036;9.344;2023-02-17T04:25:32;5.70;;;4.57;;
46363;SDS011;32071;49.036;9.344;2023-02-17T04:27:59;7.53;;;4.70;;
46363;SDS011;32071;49.036;9.344;2023-02-17T04:30:24;7.80;;;4.80;;
46363;SDS011;32071;49.036;9.344;2023-02-17T04:32:50;7.43;;;4.67;;
46363;SDS011;32071;49.036;9.344;2023-02-17T04:35:16;8.90;;;5.60;;
46363;SDS011;32071;49.036;9.344;2023-02-17T04:37:41;8.47;;;5.27;;
46363;SDS011;32071;49.036;9.344;2023-02-17T04:40:07;7.60;;;4.13;;
46363;SDS011;32071;49.036;9.344;2023-02-17T04:42:34;8.40;;;5.40;;
46363;SDS011;32071;49.036;9.344;2023-02-17T04:45:00;6.47;;;4.70;;
46363;SDS011;32071;49.036;9.344;2023-02-17T04:47:26;7.73;;;4.90;;
46363;SDS011;32071;49.036;9.344;2023-02-17T04:49:52;8.10;;;5.83;;
46363;SDS011;32071;49.036;9.344;2023-02-17T04:52:18;9.43;;;5.67;;
46363;SDS011;32071;49.036;9.344;2023-02-17T04:54:44;31.23;;;17.50;;
46363;SDS011;32071;49.036;9.344;2023-02-17T04:57:09;103.40;;;47.60;;
46363;SDS011;32071;49.036;9.344;2023-02-17T04:59:35;46.43;;;24.50;;
46363;SDS011;32071;49.036;9.344;2023-02-17T05:02:01;14.53;;;9.13;;
46363;SDS011;32071;49.036;9.344;2023-02-17T05:04:26;9.70;;;6.00;;
46363;SDS011;32071;49.036;9.344;2023-02-17T05:06:52;7.67;;;5.17;;
46363;SDS011;32071;49.036;9.344;2023-02-17T05:09:18;14.33;;;5.50;;
46363;SDS011;32071;49.036;9.344;2023-02-17T05:11:43;9.50;;;5.47;;
46363;SDS011;32071;49.036;9.344;2023-02-17T05:14:09;8.90;;;4.77;;
46363;SDS011;32071;49.036;9.344;2023-02-17T05:16:35;7.10;;;4.30;;
46363;SDS011;32071;49.036;9.344;2023-02-17T05:19:01;5.87;;;4.60;;
46363;SDS011;32071;49.036;9.344;2023-02-17T05:21:26;6.60;;;4.33;;
46363;SDS011;32071;49.036;9.344;2023-02-17T05:23:52;6.77;;;4.97;;
46363;SDS011;32071;49.036;9.344;2023-02-17T05:26:18;5.30;;;4.33;;
46363;SDS011;32071;49.036;9.344;2023-02-17T05:28:43;8.20;;;4.33;;
46363;SDS011;32071;49.036;9.344;2023-02-17T05:31:09;8.00;;;5.00;;
46363;SDS011;32071;49.036;9.344;2023-02-17T05:33:35;8.50;;;4.43;;
46363;SDS011;32071;49.036;9.344;2023-02-17T05:36:02;7.63;;;4.53;;
46363;SDS011;32071;49.036;9.344;2023-02-17T05:38:32;6.23;;;4.40;;
46363;SDS011;32071;49.036;9.344;2023-02-17T05:40:57;8.70;;;5.47;;
46363;SDS011;32071;49.036;9.344;2023-02-17T05:43:23;6.40;;;4.77;;
46363;SDS011;32071;49.036;9.344;2023-02-17T05:45:49;7.13;;;4.87;;
46363;SDS011;32071;49.036;9.344;2023-02-17T05:48:15;7.03;;;5.40;;
46363;SDS011;32071;49.036;9.344;2023-02-17T05:50:40;7.13;;;4.43;;
46363;SDS011;32071;49.036;9.344;2023-02-17T05:53:06;5.30;;;4.47;;
46363;SDS011;32071;49.036;9.344;2023-02-17T05:55:32;12.13;;;5.50;;
46363;SDS011;32071;49.036;9.344;2023-02-17T05:57:57;6.33;;;4.93;;
46363;SDS011;32071;49.036;9.344;2023-02-17T06:00:23;6.60;;;4.37;;
46363;SDS011;32071;49.036;9.344;2023-02-17T06:02:49;6.40;;;4.27;;
46363;SDS011;32071;49.036;9.344;2023-02-17T06:05:14;7.23;;;4.70;;
46363;SDS011;32071;49.036;9.344;2023-02-17T06:07:40;10.23;;;4.93;;
46363;SDS011;32071;49.036;9.344;2023-02-17T06:10:06;7.43;;;4.43;;
46363;SDS011;32071;49.036;9.344;2023-02-17T06:12:32;6.43;;;4.47;;
46363;SDS011;32071;49.036;9.344;2023-02-17T06:14:58;11.23;;;5.57;;
46363;SDS011;32071;49.036;9.344;2023-02-17T06:17:24;7.30;;;4.70;;
46363;SDS011;32071;49.036;9.344;2023-02-17T06:19:50;10.07;;;5.00;;
46363;SDS011;32071;49.036;9.344;2023-02-17T06:22:16;7.57;;;4.70;;
46363;SDS011;32071;49.036;9.344;2023-02-17T06:24:42;11.53;;;7.40;;
46363;SDS011;32071;49.036;9.344;2023-02-17T06:27:07;11.90;;;8.30;;
46363;SDS011;32071;49.036;9.344;2023-02-17T06:29:33;13.20;;;8.60;;
46363;SDS011;32071;49.036;9.344;2023-02-17T06:31:59;10.83;;;7.17;;
46363;SDS011;32071;49.036;9.344;2023-02-17T06:34:24;8.73;;;5.93;;
46363;SDS011;32071;49.036;9.344;2023-02-17T06:36:50;8.27;;;5.57;;
46363;SDS011;32071;49.036;9.344;2023-02-17T06:39:16;7.60;;;5.60;;
46363;SDS011;32071;49.036;9.344;2023-02-17T06:41:41;8.47;;;5.67;;
46363;SDS011;32071;49.036;9.344;2023-02-17T06:44:07;7.17;;;5.17;;
46363;SDS011;32071;49.036;9.344;2023-02-17T06:46:33;9.57;;;5.90;;
46363;SDS011;32071;49.036;9.344;2023-02-17T06:48:59;11.30;;;5.90;;
46363;SDS011;32071;49.036;9.344;2023-02-17T06:51:25;9.33;;;4.90;;
46363;SDS011;32071;49.036;9.344;2023-02-17T06:53:57;11.23;;;5.50;;
46363;SDS011;32071;49.036;9.344;2023-02-17T06:56:37;8.67;;;5.23;;
46363;SDS011;32071;49.036;9.344;2023-02-17T06:59:03;9.03;;;5.67;;
46363;SDS011;32071;49.036;9.344;2023-02-17T07:01:29;12.23;;;6.87;;
46363;SDS011;32071;49.036;9.344;2023-02-17T07:03:54;11.70;;;6.60;;
46363;SDS011;32071;49.036;9.344;2023-02-17T07:06:21;8.53;;;6.30;;
46363;SDS011;32071;49.036;9.344;2023-02-17T07:08:47;10.30;;;6.27;;
46363;SDS011;32071;49.036;9.344;2023-02-17T07:11:14;10.53;;;7.10;;
46363;SDS011;32071;49.036;9.344;2023-02-17T07:13:40;9.23;;;6.20;;
46363;SDS011;32071;49.036;9.344;2023-02-17T07:16:07;11.47;;;6.63;;
46363;SDS011;32071;49.036;9.344;2023-02-17T07:18:33;10.63;;;6.50;;
46363;SDS011;32071;49.036;9.344;2023-02-17T07:21:01;13.53;;;6.53;;
46363;SDS011;32071;49.036;9.344;2023-02-17T07:23:28;9.73;;;6.80;;
46363;SDS011;32071;49.036;9.344;2023-02-17T07:25:54;11.07;;;6.63;;
46363;SDS011;32071;49.036;9.344;2023-02-17T07:28:23;10.97;;;6.10;;
46363;SDS011;32071;49.036;9.344;2023-02-17T07:30:48;8.30;;;5.50;;
46363;SDS011;32071;49.036;9.344;2023-02-17T07:33:14;11.93;;;6.73;;
46363;SDS011;32071;49.036;9.344;2023-02-17T07:35:40;11.77;;;6.47;;
46363;SDS011;32071;49.036;9.344;2023-02-17T07:38:13;14.63;;;6.87;;
46363;SDS011;32071;49.036;9.344;2023-02-17T07:40:44;9.93;;;6.50;;
46363;SDS011;32071;49.036;9.344;2023-02-17T07:43:10;11.57;;;7.80;;
46363;SDS011;32071;49.036;9.344;2023-02-17T07:45:36;12.87;;;7.40;;
46363;SDS011;32071;49.036;9.344;2023-02-17T07:48:01;13.60;;;7.10;;
46363;SDS011;32071;49.036;9.344;2023-02-17T07:50:27;11.63;;;6.60;;
46363;SDS011;32071;49.036;9.344;2023-02-17T07:52:53;10.70;;;7.07;;
46363;SDS011;32071;49.036;9.344;2023-02-17T07:55:21;12.10;;;7.40;;
46363;SDS011;32071;49.036;9.344;2023-02-17T07:57:48;10.03;;;5.57;;
46363;SDS011;32071;49.036;9.344;2023-02-17T08:00:14;12.00;;;7.20;;
46363;SDS011;32071;49.036;9.344;2023-02-17T08:02:40;17.50;;;6.90;;
46363;SDS011;32071;49.036;9.344;2023-02-17T08:05:09;12.80;;;7.50;;
46363;SDS011;32071;49.036;9.344;2023-02-17T08:07:41;7.93;;;6.37;;
46363;SDS011;32071;49.036;9.344;2023-02-17T08:10:07;11.53;;;7.67;;
46363;SDS011;32071;49.036;9.344;2023-02-17T08:12:59;12.37;;;7.37;;
46363;SDS011;32071;49.036;9.344;2023-02-17T08:15:48;9.70;;;7.20;;
46363;SDS011;32071;49.036;9.344;2023-02-17T08:18:14;8.30;;;6.90;;
46363;SDS011;32071;49.036;9.344;2023-02-17T08:20:42;10.60;;;7.83;;
46363;SDS011;32071;49.036;9.344;2023-02-17T08:23:14;11.00;;;8.43;;
46363;SDS011;32071;49.036;9.344;2023-02-17T08:25:57;17.10;;;8.87;;
46363;SDS011;32071;49.036;9.344;2023-02-17T08:28:23;13.40;;;8.60;;
46363;SDS011;32071;49.036;9.344;2023-02-17T08:30:49;20.73;;;11.53;;
46363;SDS011;32071;49.036;9.344;2023-02-17T08:33:20;15.20;;;9.87;;
46363;SDS011;32071;49.036;9.344;2023-02-17T08:35:46;10.77;;;7.30;;
46363;SDS011;32071;49.036;9.344;2023-02-17T08:38:14;9.13;;;6.27;;
46363;SDS011;32071;49.036;9.344;2023-02-17T08:40:40;12.83;;;7.43;;
46363;SDS011;32071;49.036;9.344;2023-02-17T08:43:07;9.70;;;7.10;;
46363;SDS011;32071;49.036;9.344;2023-02-17T08:45:32;10.50;;;7.60;;
46363;SDS011;32071;49.036;9.344;2023-02-17T08:48:00;15.10;;;8.67;;
46363;SDS011;32071;49.036;9.344;2023-02-17T08:50:26;12.87;;;8.40;;
46363;SDS011;32071;49.036;9.344;2023-02-17T08:52:52;14.30;;;8.57;;
46363;SDS011;32071;49.036;9.344;2023-02-17T08:55:17;12.30;;;8.07;;
46363;SDS011;32071;49.036;9.344;2023-02-17T08:57:44;14.43;;;8.20;;
46363;SDS011;32071;49.036;9.344;2023-02-17T09:00:10;16.90;;;10.20;;
46363;SDS011;32071;49.036;9.344;2023-02-17T09:02:36;16.30;;;8.53;;
46363;SDS011;32071;49.036;9.344;2023-02-17T09:05:03;11.00;;;6.40;;
46363;SDS011;32071;49.036;9.344;2023-02-17T09:07:29;11.03;;;6.30;;
46363;SDS011;32071;49.036;9.344;2023-02-17T09:09:55;13.63;;;7.57;;
46363;SDS011;32071;49.036;9.344;2023-02-17T09:12:23;11.37;;;7.80;;
46363;SDS011;32071;49.036;9.344;2023-02-17T09:14:49;9.77;;;6.57;;
46363;SDS011;32071;49.036;9.344;2023-02-17T09:17:18;10.40;;;7.07;;
46363;SDS011;32071;49.036;9.344;2023-02-17T09:19:52;10.37;;;7.03;;
46363;SDS011;32071;49.036;9.344;2023-02-17T09:22:18;9.80;;;6.50;;
46363;SDS011;32071;49.036;9.344;2023-02-17T09:24:49;10.20;;;7.03;;
46363;SDS011;32071;49.036;9.344;2023-02-17T09:27:26;11.10;;;6.47;;
46363;SDS011;32071;49.036;9.344;2023-02-17T09:30:04;12.80;;;6.97;;
46363;SDS011;32071;49.036;9.344;2023-02-17T09:32:32;18.10;;;7.97;;
46363;SDS011;32071;49.036;9.344;2023-02-17T09:34:57;12.70;;;7.90;;
46363;SDS011;32071;49.036;9.344;2023-02-17T09:37:25;11.50;;;8.17;;
46363;SDS011;32071;49.036;9.344;2023-02-17T09:39:51;12.87;;;7.90;;
46363;SDS011;32071;49.036;9.344;2023-02-17T09:42:19;14.60;;;8.70;;
46363;SDS011;32071;49.036;9.344;2023-02-17T09:44:59;11.80;;;7.97;;
46363;SDS011;32071;49.036;9.344;2023-02-17T09:48:05;13.33;;;8.13;;
46363;SDS011;32071;49.036;9.344;2023-02-17T09:50:45;14.23;;;8.50;;
46363;SDS011;32071;49.036;9.344;2023-02-17T09:53:21;11.73;;;8.67;;
46363;SDS011;32071;49.036;9.344;2023-02-17T09:55:51;10.47;;;6.87;;
46363;SDS011;32071;49.036;9.344;2023-02-17T09:58:19;22.93;;;12.83;;
46363;SDS011;32071;49.036;9.344;2023-02-17T10:00:57;16.50;;;11.03;;
46363;SDS011;32071;49.036;9.344;2023-02-17T10:03:39;8.50;;;6.07;;
46363;SDS011;32071;49.036;9.344;2023-02-17T10:06:15;10.23;;;6.90;;
46363;SDS011;32071;49.036;9.344;2023-02-17T10:08:50;7.83;;;5.90;;
46363;SDS011;32071;49.036;9.344;2023-02-17T10:11:33;10.60;;;9.50;;
46363;SDS011;32071;49.036;9.344;2023-02-17T10:14:48;7.93;;;6.30;;
46363;SDS011;32071;49.036;9.344;2023-02-17T10:17:21;9.17;;;6.80;;
46363;SDS011;32071;49.036;9.344;2023-02-17T10:22:45;23.33;;;15.17;;
46363;SDS011;32071;49.036;9.344;2023-02-17T10:25:16;12.50;;;8.60;;
46363;SDS011;32071;49.036;9.344;2023-02-17T10:27:45;9.57;;;6.57;;
46363;SDS011;32071;49.036;9.344;2023-02-17T10:35:39;6.47;;;4.93;;
46363;SDS011;32071;49.036;9.344;2023-02-17T10:38:17;14.93;;;8.73;;
46363;SDS011;32071;49.036;9.344;2023-02-17T10:40:58;28.80;;;16.00;;
46363;SDS011;32071;49.036;9.344;2023-02-17T10:43:27;22.27;;;11.30;;
46363;SDS011;32071;49.036;9.344;2023-02-17T10:46:02;10.13;;;7.43;;
46363;SDS011;32071;49.036;9.344;2023-02-17T10:48:49;6.70;;;5.17;;
46363;SDS011;32071;49.036;9.344;2023-02-17T10:51:18;7.27;;;5.90;;
46363;SDS011;32071;49.036;9.344;2023-02-17T10:53:50;6.90;;;5.73;;
46363;SDS011;32071;49.036;9.344;2023-02-17T10:56:40;7.40;;;5.70;;
46363;SDS011;32071;49.036;9.344;2023-02-17T10:59:15;7.10;;;5.57;;
46363;SDS011;32071;49.036;9.344;2023-02-17T11:01:47;6.07;;;4.70;;
46363;SDS011;32071;49.036;9.344;2023-02-17T11:04:13;7.83;;;6.07;;
46363;SDS011;32071;49.036;9.344;2023-02-17T11:06:43;7.53;;;5.13;;
46363;SDS011;32071;49.036;9.344;2023-02-17T11:09:20;10.50;;;5.77;;
46363;SDS011;32071;49.036;9.344;2023-02-17T11:12:10;9.67;;;7.20;;
46363;SDS011;32071;49.036;9.344;2023-02-17T11:14:49;30.30;;;15.50;;
46363;SDS011;32071;49.036;9.344;2023-02-17T11:17:28;18.83;;;11.30;;
46363;SDS011;32071;49.036;9.344;2023-02-17T11:20:07;8.27;;;6.07;;
46363;SDS011;32071;49.036;9.344;2023-02-17T11:22:35;34.53;;;18.93;;
46363;SDS011;32071;49.036;9.344;2023-02-17T11:25:53;7.83;;;5.40;;
46363;SDS011;32071;49.036;9.344;2023-02-17T11:27:56;17.50;;;9.53;;
46363;SDS011;32071;49.036;9.344;2023-02-17T11:30:31;9.03;;;8.10;;
46363;SDS011;32071;49.036;9.344;2023-02-17T11:32:58;3.00;;;1.93;;
46363;SDS011;32071;49.036;9.344;2023-02-17T11:38:03;3.33;;;2.60;;
46363;SDS011;32071;49.036;9.344;2023-02-17T11:40:36;2.20;;;2.00;;
46363;SDS011;32071;49.036;9.344;2023-02-17T11:43:03;2.90;;;2.60;;
46363;SDS011;32071;49.036;9.344;2023-02-17T11:45:43;1.87;;;1.53;;
46363;SDS011;32071;49.036;9.344;2023-02-17T12:11:03;7.90;;;5.80;;
46363;SDS011;32071;49.036;9.344;2023-02-17T12:18:48;2.73;;;2.40;;
46363;SDS011;32071;49.036;9.344;2023-02-17T12:24:42;1.67;;;1.57;;
46363;SDS011;32071;49.036;9.344;2023-02-17T12:27:42;2.67;;;2.40;;
46363;SDS011;32071;49.036;9.344;2023-02-17T12:30:26;3.20;;;2.07;;
46363;SDS011;32071;49.036;9.344;2023-02-17T12:35:59;4.27;;;3.77;;
46363;SDS011;32071;49.036;9.344;2023-02-17T12:38:31;3.17;;;2.20;;
46363;SDS011;32071;49.036;9.344;2023-02-17T12:46:14;1.93;;;1.40;;
46363;SDS011;32071;49.036;9.344;2023-02-17T12:48:44;0.83;;;0.83;;
46363;SDS011;32071;49.036;9.344;2023-02-17T12:51:21;3.20;;;2.90;;
46363;SDS011;32071;49.036;9.344;2023-02-17T12:54:04;2.87;;;2.53;;
46363;SDS011;32071;49.036;9.344;2023-02-17T12:59:25;2.60;;;2.30;;
46363;SDS011;32071;49.036;9.344;2023-02-17T13:01:55;1.17;;;1.10;;
46363;SDS011;32071;49.036;9.344;2023-02-17T13:04:25;1.07;;;0.97;;
46363;SDS011;32071;49.036;9.344;2023-02-17T13:09:45;2.13;;;1.23;;
46363;SDS011;32071;49.036;9.344;2023-02-17T13:14:52;28.63;;;12.03;;
46363;SDS011;32071;49.036;9.344;2023-02-17T13:17:29;16.43;;;12.30;;
46363;SDS011;32071;49.036;9.344;2023-02-17T13:22:36;2.43;;;2.23;;
46363;SDS011;32071;49.036;9.344;2023-02-17T13:25:03;1.60;;;1.50;;
46363;SDS011;32071;49.036;9.344;2023-02-17T13:27:32;2.23;;;1.97;;
46363;SDS011;32071;49.036;9.344;2023-02-17T13:30:04;2.17;;;1.97;;
46363;SDS011;32071;49.036;9.344;2023-02-17T13:32:39;2.37;;;2.17;;
46363;SDS011;32071;49.036;9.344;2023-02-17T13:35:06;2.53;;;2.33;;
46363;SDS011;32071;49.036;9.344;2023-02-17T13:37:52;1.50;;;1.40;;
46363;SDS011;32071;49.036;9.344;2023-02-17T13:42:49;1.60;;;1.50;;
46363;SDS011;32071;49.036;9.344;2023-02-17T13:45:28;1.30;;;1.17;;
46363;SDS011;32071;49.036;9.344;2023-02-17T13:47:59;1.40;;;1.30;;
46363;SDS011;32071;49.036;9.344;2023-02-17T13:50:43;1.77;;;1.67;;
46363;SDS011;32071;49.036;9.344;2023-02-17T13:56:02;1.50;;;1.40;;
46363;SDS011;32071;49.036;9.344;2023-02-17T13:59:12;1.57;;;1.40;;
46363;SDS011;32071;49.036;9.344;2023-02-17T14:01:43;2.77;;;1.70;;
46363;SDS011;32071;49.036;9.344;2023-02-17T14:04:16;2.03;;;1.50;;
46363;SDS011;32071;49.036;9.344;2023-02-17T14:06:48;1.50;;;1.40;;
46363;SDS011;32071;49.036;9.344;2023-02-17T14:11:48;1.63;;;1.53;;
46363;SDS011;32071;49.036;9.344;2023-02-17T14:14:14;1.40;;;1.30;;
46363;SDS011;32071;49.036;9.344;2023-02-17T14:16:42;1.40;;;1.30;;
46363;SDS011;32071;49.036;9.344;2023-02-17T14:19:16;1.80;;;1.47;;
46363;SDS011;32071;49.036;9.344;2023-02-17T14:24:27;1.87;;;1.33;;
46363;SDS011;32071;49.036;9.344;2023-02-17T14:26:55;2.33;;;1.93;;
46363;SDS011;32071;49.036;9.344;2023-02-17T14:29:45;1.50;;;1.40;;
46363;SDS011;32071;49.036;9.344;2023-02-17T14:32:27;1.57;;;1.47;;
46363;SDS011;32071;49.036;9.344;2023-02-17T14:35:07;2.40;;;1.70;;
46363;SDS011;32071;49.036;9.344;2023-02-17T14:37:36;1.50;;;1.33;;
46363;SDS011;32071;49.036;9.344;2023-02-17T14:40:04;1.60;;;1.40;;
46363;SDS011;32071;49.036;9.344;2023-02-17T14:42:38;1.60;;;1.43;;
46363;SDS011;32071;49.036;9.344;2023-02-17T14:45:04;1.87;;;1.60;;
46363;SDS011;32071;49.036;9.344;2023-02-17T14:47:30;1.43;;;1.33;;
46363;SDS011;32071;49.036;9.344;2023-02-17T14:49:56;1.43;;;1.30;;
46363;SDS011;32071;49.036;9.344;2023-02-17T14:52:23;1.80;;;1.70;;
46363;SDS011;32071;49.036;9.344;2023-02-17T14:54:49;12.10;;;6.27;;
46363;SDS011;32071;49.036;9.344;2023-02-17T14:57:15;17.33;;;9.00;;
46363;SDS011;32071;49.036;9.344;2023-02-17T14:59:41;1.93;;;1.73;;
46363;SDS011;32071;49.036;9.344;2023-02-17T15:02:14;5.33;;;3.70;;
46363;SDS011;32071;49.036;9.344;2023-02-17T15:04:44;1.70;;;1.60;;
46363;SDS011;32071;49.036;9.344;2023-02-17T15:07:11;1.70;;;1.60;;
46363;SDS011;32071;49.036;9.344;2023-02-17T15:09:40;1.10;;;1.00;;
46363;SDS011;32071;49.036;9.344;2023-02-17T15:12:14;1.70;;;1.60;;
46363;SDS011;32071;49.036;9.344;2023-02-17T15:14:42;3.03;;;2.73;;
46363;SDS011;32071;49.036;9.344;2023-02-17T15:17:08;2.07;;;1.87;;
46363;SDS011;32071;49.036;9.344;2023-02-17T15:19:35;1.40;;;1.30;;
46363;SDS011;32071;49.036;9.344;2023-02-17T15:22:01;1.63;;;1.53;;
46363;SDS011;32071;49.036;9.344;2023-02-17T15:24:29;1.70;;;1.53;;
46363;SDS011;32071;49.036;9.344;2023-02-17T15:26:57;2.20;;;2.00;;
46363;SDS011;32071;49.036;9.344;2023-02-17T15:29:23;1.70;;;1.50;;
46363;SDS011;32071;49.036;9.344;2023-02-17T15:31:51;3.23;;;2.70;;
46363;SDS011;32071;49.036;9.344;2023-02-17T15:34:19;2.20;;;2.00;;
46363;SDS011;32071;49.036;9.344;2023-02-17T15:36:46;2.00;;;1.80;;
46363;SDS011;32071;49.036;9.344;2023-02-17T15:39:13;2.30;;;2.10;;
46363;SDS011;32071;49.036;9.344;2023-02-17T15:41:44;2.37;;;2.17;;
46363;SDS011;32071;49.036;9.344;2023-02-17T15:44:13;1.67;;;1.57;;
46363;SDS011;32071;49.036;9.344;2023-02-17T15:46:41;2.10;;;1.77;;
46363;SDS011;32071;49.036;9.344;2023-02-17T15:49:10;3.63;;;2.00;;
46363;SDS011;32071;49.036;9.344;2023-02-17T15:51:36;1.60;;;1.50;;
46363;SDS011;32071;49.036;9.344;2023-02-17T15:54:04;1.40;;;1.30;;
46363;SDS011;32071;49.036;9.344;2023-02-17T15:56:31;1.77;;;1.03;;
46363;SDS011;32071;49.036;9.344;2023-02-17T15:59:06;1.90;;;0.90;;
46363;SDS011;32071;49.036;9.344;2023-02-17T16:01:39;1.60;;;1.27;;
46363;SDS011;32071;49.036;9.344;2023-02-17T16:04:05;1.30;;;1.20;;
46363;SDS011;32071;49.036;9.344;2023-02-17T16:06:33;2.40;;;2.00;;
46363;SDS011;32071;49.036;9.344;2023-02-17T16:09:01;3.00;;;2.00;;
46363;SDS011;32071;49.036;9.344;2023-02-17T16:11:28;4.23;;;2.73;;
46363;SDS011;32071;49.036;9.344;2023-02-17T16:13:54;1.43;;;1.33;;
46363;SDS011;32071;49.036;9.344;2023-02-17T16:16:21;1.90;;;1.70;;
46363;SDS011;32071;49.036;9.344;2023-02-17T16:18:52;3.10;;;1.67;;
46363;SDS011;32071;49.036;9.344;2023-02-17T16:21:18;1.63;;;1.53;;
46363;SDS011;32071;49.036;9.344;2023-02-17T16:23:44;1.23;;;1.13;;
46363;SDS011;32071;49.036;9.344;2023-02-17T16:26:20;1.50;;;1.40;;
46363;SDS011;32071;49.036;9.344;2023-02-17T16:28:52;2.60;;;2.40;;
46363;SDS011;32071;49.036;9.344;2023-02-17T16:31:18;4.13;;;2.43;;